Terminal Aerodrome Forecast
Issued by NWS

Home | Current Version | Previous Version | Text Only | Print | Product List | Glossary On
Versions: 1 2 3 4 5 6 7 8 9 10 11 12 13 14 15 16 17 18 19 20 21 22
219
FTUS43 KTOP 272343 CCA
TAFFOE
TAF COR
KFOE 272343Z 2800/2824 17010KT P6SM SCT200
     FM280300 18010KT P6SM BKN035 WS020/19040KT
     FM280500 18011KT P6SM BKN017 WS020/19040KT
     FM281000 20011KT P6SM BKN050
     FM281700 23014G24KT P6SM BKN120=

USA.gov is the U.S. government's official web portal to all federal, state and local government web resources and services.